sensor_id;sensor_type;location;lat;lon;timestamp;temperature;humidity
11615;DHT22;5863;52.832;4.758;2023-04-19T00:01:04;9.50;99.90
11615;DHT22;5863;52.832;4.758;2023-04-19T00:03:32;9.50;99.90
11615;DHT22;5863;52.832;4.758;2023-04-19T00:05:58;9.50;99.90
11615;DHT22;5863;52.832;4.758;2023-04-19T00:08:25;9.50;99.90
11615;DHT22;5863;52.832;4.758;2023-04-19T00:10:52;9.50;99.90
11615;DHT22;5863;52.832;4.758;2023-04-19T00:13:19;9.50;99.90
11615;DHT22;5863;52.832;4.758;2023-04-19T00:15:46;9.50;99.90
11615;DHT22;5863;52.832;4.758;2023-04-19T00:18:13;9.50;99.90
11615;DHT22;5863;52.832;4.758;2023-04-19T00:20:41;9.50;99.90
11615;DHT22;5863;52.832;4.758;2023-04-19T00:23:08;9.50;99.90
11615;DHT22;5863;52.832;4.758;2023-04-19T00:25:35;9.50;99.90
11615;DHT22;5863;52.832;4.758;2023-04-19T00:28:02;9.50;99.90
11615;DHT22;5863;52.832;4.758;2023-04-19T00:30:29;9.50;99.90
11615;DHT22;5863;52.832;4.758;2023-04-19T00:32:56;9.40;99.90
11615;DHT22;5863;52.832;4.758;2023-04-19T00:35:22;9.40;99.90
11615;DHT22;5863;52.832;4.758;2023-04-19T00:37:50;9.40;99.90
11615;DHT22;5863;52.832;4.758;2023-04-19T00:40:17;9.40;99.90
11615;DHT22;5863;52.832;4.758;2023-04-19T00:42:44;9.40;99.90
11615;DHT22;5863;52.832;4.758;2023-04-19T00:45:11;9.40;99.90
11615;DHT22;5863;52.832;4.758;2023-04-19T00:47:37;9.40;99.90
11615;DHT22;5863;52.832;4.758;2023-04-19T00:50:05;9.40;99.90
11615;DHT22;5863;52.832;4.758;2023-04-19T00:52:32;9.40;99.90
11615;DHT22;5863;52.832;4.758;2023-04-19T00:55:01;9.30;99.90
11615;DHT22;5863;52.832;4.758;2023-04-19T00:57:29;9.30;99.90
11615;DHT22;5863;52.832;4.758;2023-04-19T00:59:56;9.30;99.90
11615;DHT22;5863;52.832;4.758;2023-04-19T01:02:23;9.30;99.90
11615;DHT22;5863;52.832;4.758;2023-04-19T01:04:50;9.30;99.90
11615;DHT22;5863;52.832;4.758;2023-04-19T01:07:17;9.30;99.90
11615;DHT22;5863;52.832;4.758;2023-04-19T01:09:45;9.30;99.90
11615;DHT22;5863;52.832;4.758;2023-04-19T01:12:13;9.30;99.90
11615;DHT22;5863;52.832;4.758;2023-04-19T01:14:40;9.30;99.90
11615;DHT22;5863;52.832;4.758;2023-04-19T01:17:07;9.30;99.90
11615;DHT22;5863;52.832;4.758;2023-04-19T01:19:34;9.30;99.90
11615;DHT22;5863;52.832;4.758;2023-04-19T01:22:01;9.30;99.90
11615;DHT22;5863;52.832;4.758;2023-04-19T01:24:29;9.30;99.90
11615;DHT22;5863;52.832;4.758;2023-04-19T01:26:56;9.30;99.90
11615;DHT22;5863;52.832;4.758;2023-04-19T01:29:23;9.30;99.90
11615;DHT22;5863;52.832;4.758;2023-04-19T01:31:50;9.30;99.90
11615;DHT22;5863;52.832;4.758;2023-04-19T01:34:18;9.30;99.90
11615;DHT22;5863;52.832;4.758;2023-04-19T01:36:44;9.30;99.90
11615;DHT22;5863;52.832;4.758;2023-04-19T01:39:11;9.30;99.90
11615;DHT22;5863;52.832;4.758;2023-04-19T01:41:39;9.30;99.90
11615;DHT22;5863;52.832;4.758;2023-04-19T01:44:06;9.30;99.90
11615;DHT22;5863;52.832;4.758;2023-04-19T01:46:32;9.30;99.90
11615;DHT22;5863;52.832;4.758;2023-04-19T01:49:00;9.30;99.90
11615;DHT22;5863;52.832;4.758;2023-04-19T01:51:27;9.30;99.90
11615;DHT22;5863;52.832;4.758;2023-04-19T01:53:54;9.30;99.90
11615;DHT22;5863;52.832;4.758;2023-04-19T01:56:21;9.30;99.90
11615;DHT22;5863;52.832;4.758;2023-04-19T01:58:50;9.30;99.90
11615;DHT22;5863;52.832;4.758;2023-04-19T02:01:17;9.20;99.90
11615;DHT22;5863;52.832;4.758;2023-04-19T02:03:43;9.20;99.90
11615;DHT22;5863;52.832;4.758;2023-04-19T02:06:11;9.20;99.90
11615;DHT22;5863;52.832;4.758;2023-04-19T02:08:39;9.20;99.90
11615;DHT22;5863;52.832;4.758;2023-04-19T02:11:06;9.20;99.90
11615;DHT22;5863;52.832;4.758;2023-04-19T02:13:33;9.20;99.90
11615;DHT22;5863;52.832;4.758;2023-04-19T02:16:02;9.10;99.90
11615;DHT22;5863;52.832;4.758;2023-04-19T02:18:30;9.10;99.90
11615;DHT22;5863;52.832;4.758;2023-04-19T02:20:57;9.10;99.90
11615;DHT22;5863;52.832;4.758;2023-04-19T02:23:24;9.10;99.90
11615;DHT22;5863;52.832;4.758;2023-04-19T02:25:51;9.10;99.90
11615;DHT22;5863;52.832;4.758;2023-04-19T02:28:17;9.10;99.90
11615;DHT22;5863;52.832;4.758;2023-04-19T02:30:44;9.10;99.90
11615;DHT22;5863;52.832;4.758;2023-04-19T02:33:13;9.10;99.90
11615;DHT22;5863;52.832;4.758;2023-04-19T02:35:39;9.10;99.90
11615;DHT22;5863;52.832;4.758;2023-04-19T02:38:06;9.00;99.90
11615;DHT22;5863;52.832;4.758;2023-04-19T02:40:34;9.00;99.90
11615;DHT22;5863;52.832;4.758;2023-04-19T02:43:00;9.00;99.90
11615;DHT22;5863;52.832;4.758;2023-04-19T02:45:29;9.00;99.90
11615;DHT22;5863;52.832;4.758;2023-04-19T02:47:55;8.90;99.90
11615;DHT22;5863;52.832;4.758;2023-04-19T02:50:26;8.90;99.90
11615;DHT22;5863;52.832;4.758;2023-04-19T02:52:53;8.90;99.90
11615;DHT22;5863;52.832;4.758;2023-04-19T02:55:19;8.90;99.90
11615;DHT22;5863;52.832;4.758;2023-04-19T02:57:46;8.90;99.90
11615;DHT22;5863;52.832;4.758;2023-04-19T03:00:13;8.90;99.90
11615;DHT22;5863;52.832;4.758;2023-04-19T03:02:40;8.90;99.90
11615;DHT22;5863;52.832;4.758;2023-04-19T03:05:08;9.00;99.90
11615;DHT22;5863;52.832;4.758;2023-04-19T03:07:36;8.80;99.90
11615;DHT22;5863;52.832;4.758;2023-04-19T03:10:04;8.80;99.90
11615;DHT22;5863;52.832;4.758;2023-04-19T03:12:31;8.80;99.90
11615;DHT22;5863;52.832;4.758;2023-04-19T03:14:57;8.80;99.90
11615;DHT22;5863;52.832;4.758;2023-04-19T03:17:24;8.80;99.90
11615;DHT22;5863;52.832;4.758;2023-04-19T03:19:51;8.80;99.90
11615;DHT22;5863;52.832;4.758;2023-04-19T03:22:18;8.80;99.90
11615;DHT22;5863;52.832;4.758;2023-04-19T03:24:46;8.80;99.90
11615;DHT22;5863;52.832;4.758;2023-04-19T03:27:13;8.70;99.90
11615;DHT22;5863;52.832;4.758;2023-04-19T03:29:40;8.70;99.90
11615;DHT22;5863;52.832;4.758;2023-04-19T03:32:06;8.70;99.90
11615;DHT22;5863;52.832;4.758;2023-04-19T03:34:33;8.70;99.90
11615;DHT22;5863;52.832;4.758;2023-04-19T03:36:59;8.70;99.90
11615;DHT22;5863;52.832;4.758;2023-04-19T03:39:26;8.70;99.90
11615;DHT22;5863;52.832;4.758;2023-04-19T03:41:54;8.70;99.90
11615;DHT22;5863;52.832;4.758;2023-04-19T03:44:21;8.70;99.90
11615;DHT22;5863;52.832;4.758;2023-04-19T03:46:48;8.60;99.90
11615;DHT22;5863;52.832;4.758;2023-04-19T03:49:14;8.70;99.90
11615;DHT22;5863;52.832;4.758;2023-04-19T03:51:41;8.70;99.90
11615;DHT22;5863;52.832;4.758;2023-04-19T03:54:08;8.60;99.90
11615;DHT22;5863;52.832;4.758;2023-04-19T03:56:34;8.60;99.90
11615;DHT22;5863;52.832;4.758;2023-04-19T03:59:02;8.60;99.90
11615;DHT22;5863;52.832;4.758;2023-04-19T04:01:29;8.60;99.90
11615;DHT22;5863;52.832;4.758;2023-04-19T04:03:55;8.60;99.90
11615;DHT22;5863;52.832;4.758;2023-04-19T04:06:22;8.60;99.90
11615;DHT22;5863;52.832;4.758;2023-04-19T04:08:49;8.60;99.90
11615;DHT22;5863;52.832;4.758;2023-04-19T04:11:15;8.60;99.90
11615;DHT22;5863;52.832;4.758;2023-04-19T04:13:42;8.50;99.90
11615;DHT22;5863;52.832;4.758;2023-04-19T04:16:12;8.50;99.90
11615;DHT22;5863;52.832;4.758;2023-04-19T04:18:38;8.50;99.90
11615;DHT22;5863;52.832;4.758;2023-04-19T04:21:05;8.50;99.90
11615;DHT22;5863;52.832;4.758;2023-04-19T04:23:32;8.50;99.90
11615;DHT22;5863;52.832;4.758;2023-04-19T04:26:00;8.50;99.90
11615;DHT22;5863;52.832;4.758;2023-04-19T04:28:27;8.50;99.90
11615;DHT22;5863;52.832;4.758;2023-04-19T04:30:54;8.40;99.90
11615;DHT22;5863;52.832;4.758;2023-04-19T04:33:23;8.40;99.90
11615;DHT22;5863;52.832;4.758;2023-04-19T04:35:50;8.40;99.90
11615;DHT22;5863;52.832;4.758;2023-04-19T04:38:17;8.40;99.90
11615;DHT22;5863;52.832;4.758;2023-04-19T04:40:48;8.40;99.90
11615;DHT22;5863;52.832;4.758;2023-04-19T04:43:15;8.40;99.90
11615;DHT22;5863;52.832;4.758;2023-04-19T04:45:42;8.40;99.90
11615;DHT22;5863;52.832;4.758;2023-04-19T04:48:09;8.40;99.90
11615;DHT22;5863;52.832;4.758;2023-04-19T04:50:38;8.50;99.90
11615;DHT22;5863;52.832;4.758;2023-04-19T04:53:04;8.50;99.90
11615;DHT22;5863;52.832;4.758;2023-04-19T04:55:31;8.40;99.90
11615;DHT22;5863;52.832;4.758;2023-04-19T04:57:58;8.40;99.90
11615;DHT22;5863;52.832;4.758;2023-04-19T05:00:25;8.50;99.90
11615;DHT22;5863;52.832;4.758;2023-04-19T05:02:51;8.50;99.90
11615;DHT22;5863;52.832;4.758;2023-04-19T05:05:18;8.60;99.90
11615;DHT22;5863;52.832;4.758;2023-04-19T05:07:46;8.70;99.90
11615;DHT22;5863;52.832;4.758;2023-04-19T05:10:13;8.80;99.90
11615;DHT22;5863;52.832;4.758;2023-04-19T05:12:40;8.80;99.90
11615;DHT22;5863;52.832;4.758;2023-04-19T05:15:07;9.00;99.90
11615;DHT22;5863;52.832;4.758;2023-04-19T05:17:36;9.10;99.90
11615;DHT22;5863;52.832;4.758;2023-04-19T05:20:03;9.30;99.90
11615;DHT22;5863;52.832;4.758;2023-04-19T05:22:30;9.50;99.90
11615;DHT22;5863;52.832;4.758;2023-04-19T05:24:58;9.70;99.90
11615;DHT22;5863;52.832;4.758;2023-04-19T05:27:26;9.90;99.90
11615;DHT22;5863;52.832;4.758;2023-04-19T05:29:53;10.00;99.90
11615;DHT22;5863;52.832;4.758;2023-04-19T05:32:20;10.30;99.90
11615;DHT22;5863;52.832;4.758;2023-04-19T05:34:47;10.40;99.90
11615;DHT22;5863;52.832;4.758;2023-04-19T05:37:14;10.60;99.90
11615;DHT22;5863;52.832;4.758;2023-04-19T05:39:41;10.70;99.90
11615;DHT22;5863;52.832;4.758;2023-04-19T05:42:09;10.90;99.90
11615;DHT22;5863;52.832;4.758;2023-04-19T05:44:35;11.00;99.90
11615;DHT22;5863;52.832;4.758;2023-04-19T05:47:02;11.20;99.90
11615;DHT22;5863;52.832;4.758;2023-04-19T05:49:29;11.50;99.90
11615;DHT22;5863;52.832;4.758;2023-04-19T05:51:55;11.50;99.90
11615;DHT22;5863;52.832;4.758;2023-04-19T05:54:22;11.50;99.90
11615;DHT22;5863;52.832;4.758;2023-04-19T05:56:49;11.40;99.90
11615;DHT22;5863;52.832;4.758;2023-04-19T05:59:17;11.30;99.90
11615;DHT22;5863;52.832;4.758;2023-04-19T06:01:43;11.30;99.90
11615;DHT22;5863;52.832;4.758;2023-04-19T06:04:10;11.40;99.90
11615;DHT22;5863;52.832;4.758;2023-04-19T06:06:37;11.60;99.90
11615;DHT22;5863;52.832;4.758;2023-04-19T06:09:04;11.80;99.90
11615;DHT22;5863;52.832;4.758;2023-04-19T06:11:31;12.10;99.90
11615;DHT22;5863;52.832;4.758;2023-04-19T06:13:58;12.20;99.90
11615;DHT22;5863;52.832;4.758;2023-04-19T06:16:26;12.30;99.90
11615;DHT22;5863;52.832;4.758;2023-04-19T06:18:53;12.50;99.90
11615;DHT22;5863;52.832;4.758;2023-04-19T06:21:19;12.70;99.90
11615;DHT22;5863;52.832;4.758;2023-04-19T06:23:46;12.60;99.80
11615;DHT22;5863;52.832;4.758;2023-04-19T06:26:13;12.40;99.90
11615;DHT22;5863;52.832;4.758;2023-04-19T06:28:39;12.40;99.90
11615;DHT22;5863;52.832;4.758;2023-04-19T06:31:06;12.40;99.90
11615;DHT22;5863;52.832;4.758;2023-04-19T06:33:34;12.60;99.90
11615;DHT22;5863;52.832;4.758;2023-04-19T06:36:01;12.90;99.50
11615;DHT22;5863;52.832;4.758;2023-04-19T06:38:28;13.20;99.00
11615;DHT22;5863;52.832;4.758;2023-04-19T06:40:55;13.70;98.90
11615;DHT22;5863;52.832;4.758;2023-04-19T06:43:23;13.80;97.40
11615;DHT22;5863;52.832;4.758;2023-04-19T06:45:56;13.70;97.30
11615;DHT22;5863;52.832;4.758;2023-04-19T06:48:23;14.00;97.50
11615;DHT22;5863;52.832;4.758;2023-04-19T06:50:51;13.70;96.50
11615;DHT22;5863;52.832;4.758;2023-04-19T06:53:18;13.80;96.80
11615;DHT22;5863;52.832;4.758;2023-04-19T06:55:45;13.90;96.60
11615;DHT22;5863;52.832;4.758;2023-04-19T06:58:11;14.00;96.10
11615;DHT22;5863;52.832;4.758;2023-04-19T07:00:38;14.10;96.30
11615;DHT22;5863;52.832;4.758;2023-04-19T07:03:05;13.90;96.00
11615;DHT22;5863;52.832;4.758;2023-04-19T07:05:31;13.70;95.70
11615;DHT22;5863;52.832;4.758;2023-04-19T07:08:00;14.00;95.90
11615;DHT22;5863;52.832;4.758;2023-04-19T07:10:26;14.40;95.40
11615;DHT22;5863;52.832;4.758;2023-04-19T07:12:53;14.50;95.10
11615;DHT22;5863;52.832;4.758;2023-04-19T07:15:20;14.10;95.00
11615;DHT22;5863;52.832;4.758;2023-04-19T07:17:47;13.90;95.00
11615;DHT22;5863;52.832;4.758;2023-04-19T07:20:13;14.10;95.30
11615;DHT22;5863;52.832;4.758;2023-04-19T07:22:40;14.20;95.40
11615;DHT22;5863;52.832;4.758;2023-04-19T07:25:09;14.30;94.90
11615;DHT22;5863;52.832;4.758;2023-04-19T07:27:36;14.80;95.10
11615;DHT22;5863;52.832;4.758;2023-04-19T07:30:03;14.80;94.40
11615;DHT22;5863;52.832;4.758;2023-04-19T07:32:30;15.20;94.00
11615;DHT22;5863;52.832;4.758;2023-04-19T07:34:57;15.20;93.50
11615;DHT22;5863;52.832;4.758;2023-04-19T07:37:23;15.20;92.80
11615;DHT22;5863;52.832;4.758;2023-04-19T07:39:50;15.40;93.30
11615;DHT22;5863;52.832;4.758;2023-04-19T07:42:18;15.60;92.90
11615;DHT22;5863;52.832;4.758;2023-04-19T07:44:45;15.90;92.10
11615;DHT22;5863;52.832;4.758;2023-04-19T07:47:12;15.80;90.90
11615;DHT22;5863;52.832;4.758;2023-04-19T07:49:38;15.60;90.70
11615;DHT22;5863;52.832;4.758;2023-04-19T07:52:06;15.40;90.60
11615;DHT22;5863;52.832;4.758;2023-04-19T07:54:33;15.10;90.50
11615;DHT22;5863;52.832;4.758;2023-04-19T07:57:00;15.00;90.10
11615;DHT22;5863;52.832;4.758;2023-04-19T07:59:28;14.70;90.30
11615;DHT22;5863;52.832;4.758;2023-04-19T08:01:57;14.40;90.40
11615;DHT22;5863;52.832;4.758;2023-04-19T08:04:24;14.30;90.80
11615;DHT22;5863;52.832;4.758;2023-04-19T08:06:51;14.10;90.70
11615;DHT22;5863;52.832;4.758;2023-04-19T08:09:18;14.00;91.50
11615;DHT22;5863;52.832;4.758;2023-04-19T08:11:44;13.90;90.90
11615;DHT22;5863;52.832;4.758;2023-04-19T08:14:11;13.70;91.60
11615;DHT22;5863;52.832;4.758;2023-04-19T08:16:39;13.50;91.30
11615;DHT22;5863;52.832;4.758;2023-04-19T08:19:06;13.50;92.00
11615;DHT22;5863;52.832;4.758;2023-04-19T08:21:32;13.60;92.80
11615;DHT22;5863;52.832;4.758;2023-04-19T08:23:59;13.60;92.50
11615;DHT22;5863;52.832;4.758;2023-04-19T08:26:26;13.60;93.40
11615;DHT22;5863;52.832;4.758;2023-04-19T08:28:52;13.40;92.30
11615;DHT22;5863;52.832;4.758;2023-04-19T08:31:19;13.20;92.20
11615;DHT22;5863;52.832;4.758;2023-04-19T08:33:47;13.00;92.60
11615;DHT22;5863;52.832;4.758;2023-04-19T08:36:14;12.80;92.90
11615;DHT22;5863;52.832;4.758;2023-04-19T08:38:41;12.70;93.30
11615;DHT22;5863;52.832;4.758;2023-04-19T08:41:10;12.70;93.50
11615;DHT22;5863;52.832;4.758;2023-04-19T08:43:38;12.70;93.50
11615;DHT22;5863;52.832;4.758;2023-04-19T08:46:07;12.60;92.60
11615;DHT22;5863;52.832;4.758;2023-04-19T08:48:36;12.50;92.30
11615;DHT22;5863;52.832;4.758;2023-04-19T08:51:04;12.40;93.20
11615;DHT22;5863;52.832;4.758;2023-04-19T08:53:33;12.40;93.60
11615;DHT22;5863;52.832;4.758;2023-04-19T08:56:00;12.40;93.60
11615;DHT22;5863;52.832;4.758;2023-04-19T08:58:27;12.40;94.40
11615;DHT22;5863;52.832;4.758;2023-04-19T09:00:57;12.40;93.70
11615;DHT22;5863;52.832;4.758;2023-04-19T09:03:24;12.50;94.30
11615;DHT22;5863;52.832;4.758;2023-04-19T09:05:51;12.50;93.30
11615;DHT22;5863;52.832;4.758;2023-04-19T09:08:23;12.50;94.00
11615;DHT22;5863;52.832;4.758;2023-04-19T09:10:55;12.50;94.10
11615;DHT22;5863;52.832;4.758;2023-04-19T09:13:22;12.50;93.40
11615;DHT22;5863;52.832;4.758;2023-04-19T09:15:49;12.40;93.20
11615;DHT22;5863;52.832;4.758;2023-04-19T09:18:16;12.40;93.90
11615;DHT22;5863;52.832;4.758;2023-04-19T09:20:44;12.50;93.40
11615;DHT22;5863;52.832;4.758;2023-04-19T09:23:13;12.50;93.50
11615;DHT22;5863;52.832;4.758;2023-04-19T09:25:50;12.50;92.30
11615;DHT22;5863;52.832;4.758;2023-04-19T09:28:17;12.50;92.30
11615;DHT22;5863;52.832;4.758;2023-04-19T09:30:44;12.60;92.50
11615;DHT22;5863;52.832;4.758;2023-04-19T09:33:11;12.60;92.70
11615;DHT22;5863;52.832;4.758;2023-04-19T09:35:39;12.60;93.00
11615;DHT22;5863;52.832;4.758;2023-04-19T09:38:06;12.60;93.00
11615;DHT22;5863;52.832;4.758;2023-04-19T09:40:33;12.70;92.80
11615;DHT22;5863;52.832;4.758;2023-04-19T09:43:02;12.70;92.70
11615;DHT22;5863;52.832;4.758;2023-04-19T09:45:39;12.70;93.40
11615;DHT22;5863;52.832;4.758;2023-04-19T09:48:07;12.80;92.80
11615;DHT22;5863;52.832;4.758;2023-04-19T09:50:34;12.70;92.10
11615;DHT22;5863;52.832;4.758;2023-04-19T09:53:01;12.70;93.00
11615;DHT22;5863;52.832;4.758;2023-04-19T09:55:28;12.70;92.40
11615;DHT22;5863;52.832;4.758;2023-04-19T09:57:56;12.80;92.20
11615;DHT22;5863;52.832;4.758;2023-04-19T10:00:25;12.70;93.30
11615;DHT22;5863;52.832;4.758;2023-04-19T10:02:51;12.80;93.50
11615;DHT22;5863;52.832;4.758;2023-04-19T10:05:22;12.90;92.80
11615;DHT22;5863;52.832;4.758;2023-04-19T10:07:49;13.00;91.70
11615;DHT22;5863;52.832;4.758;2023-04-19T10:10:17;13.10;91.40
11615;DHT22;5863;52.832;4.758;2023-04-19T10:12:47;13.20;91.70
11615;DHT22;5863;52.832;4.758;2023-04-19T10:15:15;13.30;92.20
11615;DHT22;5863;52.832;4.758;2023-04-19T10:17:43;13.40;92.10
11615;DHT22;5863;52.832;4.758;2023-04-19T10:20:19;13.40;90.30
11615;DHT22;5863;52.832;4.758;2023-04-19T10:22:48;13.60;91.40
11615;DHT22;5863;52.832;4.758;2023-04-19T10:25:16;13.50;90.10
11615;DHT22;5863;52.832;4.758;2023-04-19T10:27:43;13.50;90.30
11615;DHT22;5863;52.832;4.758;2023-04-19T10:30:18;13.60;90.50
11615;DHT22;5863;52.832;4.758;2023-04-19T10:32:51;13.50;89.50
11615;DHT22;5863;52.832;4.758;2023-04-19T10:35:21;13.40;88.50
11615;DHT22;5863;52.832;4.758;2023-04-19T10:38:02;13.50;89.10
11615;DHT22;5863;52.832;4.758;2023-04-19T10:40:54;13.50;89.70
11615;DHT22;5863;52.832;4.758;2023-04-19T10:43:23;13.50;88.60
11615;DHT22;5863;52.832;4.758;2023-04-19T10:45:51;13.50;87.30
11615;DHT22;5863;52.832;4.758;2023-04-19T10:48:32;13.50;88.70
11615;DHT22;5863;52.832;4.758;2023-04-19T10:51:01;13.50;88.10
11615;DHT22;5863;52.832;4.758;2023-04-19T10:53:47;13.40;87.70
11615;DHT22;5863;52.832;4.758;2023-04-19T10:56:16;13.50;90.20
11615;DHT22;5863;52.832;4.758;2023-04-19T10:59:12;13.60;90.10
11615;DHT22;5863;52.832;4.758;2023-04-19T11:01:46;13.70;89.90
11615;DHT22;5863;52.832;4.758;2023-04-19T11:04:16;13.70;90.00
11615;DHT22;5863;52.832;4.758;2023-04-19T11:06:58;13.70;90.80
11615;DHT22;5863;52.832;4.758;2023-04-19T11:09:28;13.90;91.20
11615;DHT22;5863;52.832;4.758;2023-04-19T11:11:58;13.80;89.90
11615;DHT22;5863;52.832;4.758;2023-04-19T11:14:25;13.80;90.20
11615;DHT22;5863;52.832;4.758;2023-04-19T11:16:52;13.80;90.20
11615;DHT22;5863;52.832;4.758;2023-04-19T11:19:20;13.90;90.70
11615;DHT22;5863;52.832;4.758;2023-04-19T11:21:48;14.00;91.30
11615;DHT22;5863;52.832;4.758;2023-04-19T11:24:15;14.10;90.20
11615;DHT22;5863;52.832;4.758;2023-04-19T11:26:44;14.10;90.00
11615;DHT22;5863;52.832;4.758;2023-04-19T11:29:11;14.10;90.00
11615;DHT22;5863;52.832;4.758;2023-04-19T11:31:38;14.00;88.30
11615;DHT22;5863;52.832;4.758;2023-04-19T11:34:05;13.90;89.80
11615;DHT22;5863;52.832;4.758;2023-04-19T11:36:33;14.00;90.80
11615;DHT22;5863;52.832;4.758;2023-04-19T11:39:03;14.00;88.40
11615;DHT22;5863;52.832;4.758;2023-04-19T11:41:36;14.10;90.50
11615;DHT22;5863;52.832;4.758;2023-04-19T11:44:12;14.10;89.40
11615;DHT22;5863;52.832;4.758;2023-04-19T11:46:39;14.10;89.40
11615;DHT22;5863;52.832;4.758;2023-04-19T11:49:05;14.10;90.20
11615;DHT22;5863;52.832;4.758;2023-04-19T11:51:34;14.10;90.00
11615;DHT22;5863;52.832;4.758;2023-04-19T11:54:00;14.20;91.30
11615;DHT22;5863;52.832;4.758;2023-04-19T11:56:27;14.20;91.40
11615;DHT22;5863;52.832;4.758;2023-04-19T11:58:56;14.20;90.70
11615;DHT22;5863;52.832;4.758;2023-04-19T12:01:23;14.20;91.40
11615;DHT22;5863;52.832;4.758;2023-04-19T12:03:51;14.30;91.70
11615;DHT22;5863;52.832;4.758;2023-04-19T12:06:22;14.30;91.30
11615;DHT22;5863;52.832;4.758;2023-04-19T12:08:52;14.40;91.60
11615;DHT22;5863;52.832;4.758;2023-04-19T12:11:20;14.30;91.10
11615;DHT22;5863;52.832;4.758;2023-04-19T12:13:55;14.30;90.70
11615;DHT22;5863;52.832;4.758;2023-04-19T12:16:33;14.20;91.60
11615;DHT22;5863;52.832;4.758;2023-04-19T12:19:10;14.30;92.30
11615;DHT22;5863;52.832;4.758;2023-04-19T12:21:38;14.40;91.40
11615;DHT22;5863;52.832;4.758;2023-04-19T12:24:07;14.60;92.00
11615;DHT22;5863;52.832;4.758;2023-04-19T12:26:34;14.60;90.60
11615;DHT22;5863;52.832;4.758;2023-04-19T12:29:04;14.60;90.40
11615;DHT22;5863;52.832;4.758;2023-04-19T12:31:31;14.50;90.30
11615;DHT22;5863;52.832;4.758;2023-04-19T12:33:58;14.40;90.20
11615;DHT22;5863;52.832;4.758;2023-04-19T12:36:28;14.40;91.50
11615;DHT22;5863;52.832;4.758;2023-04-19T12:38:55;14.40;90.70
11615;DHT22;5863;52.832;4.758;2023-04-19T12:41:23;14.50;90.20
11615;DHT22;5863;52.832;4.758;2023-04-19T12:43:50;14.50;90.50
11615;DHT22;5863;52.832;4.758;2023-04-19T12:46:16;14.40;90.00
11615;DHT22;5863;52.832;4.758;2023-04-19T12:48:43;14.30;89.60
11615;DHT22;5863;52.832;4.758;2023-04-19T12:51:10;14.30;90.80
11615;DHT22;5863;52.832;4.758;2023-04-19T12:53:37;14.40;90.30
11615;DHT22;5863;52.832;4.758;2023-04-19T12:56:04;14.50;90.40
11615;DHT22;5863;52.832;4.758;2023-04-19T12:58:35;14.40;91.90
11615;DHT22;5863;52.832;4.758;2023-04-19T13:01:02;14.50;93.10
11615;DHT22;5863;52.832;4.758;2023-04-19T13:03:29;14.40;92.60
11615;DHT22;5863;52.832;4.758;2023-04-19T13:05:57;14.40;93.20
11615;DHT22;5863;52.832;4.758;2023-04-19T13:08:24;14.40;93.10
11615;DHT22;5863;52.832;4.758;2023-04-19T13:10:50;14.50;93.60
11615;DHT22;5863;52.832;4.758;2023-04-19T13:13:18;14.50;92.70
11615;DHT22;5863;52.832;4.758;2023-04-19T13:15:46;14.50;93.10
11615;DHT22;5863;52.832;4.758;2023-04-19T13:18:13;14.60;92.70
11615;DHT22;5863;52.832;4.758;2023-04-19T13:20:39;14.60;93.40
11615;DHT22;5863;52.832;4.758;2023-04-19T13:23:06;14.60;92.70
11615;DHT22;5863;52.832;4.758;2023-04-19T13:25:33;14.60;92.80
11615;DHT22;5863;52.832;4.758;2023-04-19T13:28:00;14.60;92.80
11615;DHT22;5863;52.832;4.758;2023-04-19T13:30:26;14.50;91.90
11615;DHT22;5863;52.832;4.758;2023-04-19T13:32:54;14.40;91.40
11615;DHT22;5863;52.832;4.758;2023-04-19T13:35:22;14.40;92.00
11615;DHT22;5863;52.832;4.758;2023-04-19T13:37:48;14.40;91.20
11615;DHT22;5863;52.832;4.758;2023-04-19T13:40:15;14.30;91.70
11615;DHT22;5863;52.832;4.758;2023-04-19T13:42:42;14.30;91.90
11615;DHT22;5863;52.832;4.758;2023-04-19T13:45:09;14.40;91.20
11615;DHT22;5863;52.832;4.758;2023-04-19T13:47:36;14.30;91.30
11615;DHT22;5863;52.832;4.758;2023-04-19T13:50:05;14.30;91.50
11615;DHT22;5863;52.832;4.758;2023-04-19T13:52:32;14.30;91.40
11615;DHT22;5863;52.832;4.758;2023-04-19T13:54:59;14.40;91.90
11615;DHT22;5863;52.832;4.758;2023-04-19T13:57:26;14.30;93.20
11615;DHT22;5863;52.832;4.758;2023-04-19T13:59:52;14.30;93.00
11615;DHT22;5863;52.832;4.758;2023-04-19T14:02:19;14.20;93.00
11615;DHT22;5863;52.832;4.758;2023-04-19T14:04:46;14.20;93.20
11615;DHT22;5863;52.832;4.758;2023-04-19T14:07:14;14.10;92.80
11615;DHT22;5863;52.832;4.758;2023-04-19T14:09:41;14.10;92.90
11615;DHT22;5863;52.832;4.758;2023-04-19T14:12:09;14.10;92.10
11615;DHT22;5863;52.832;4.758;2023-04-19T14:14:36;14.10;92.60
11615;DHT22;5863;52.832;4.758;2023-04-19T14:17:03;14.00;92.30
11615;DHT22;5863;52.832;4.758;2023-04-19T14:19:29;13.80;92.20
11615;DHT22;5863;52.832;4.758;2023-04-19T14:21:56;13.80;92.40
11615;DHT22;5863;52.832;4.758;2023-04-19T14:24:24;13.70;92.50
11615;DHT22;5863;52.832;4.758;2023-04-19T14:26:51;13.70;93.30
11615;DHT22;5863;52.832;4.758;2023-04-19T14:29:18;13.70;92.70
11615;DHT22;5863;52.832;4.758;2023-04-19T14:31:44;13.60;92.80
11615;DHT22;5863;52.832;4.758;2023-04-19T14:34:11;13.60;94.70
11615;DHT22;5863;52.832;4.758;2023-04-19T14:36:38;13.60;96.50
11615;DHT22;5863;52.832;4.758;2023-04-19T14:39:05;13.60;96.80
11615;DHT22;5863;52.832;4.758;2023-04-19T14:41:34;13.70;97.20
11615;DHT22;5863;52.832;4.758;2023-04-19T14:44:00;13.60;97.50
11615;DHT22;5863;52.832;4.758;2023-04-19T14:46:28;13.70;97.20
11615;DHT22;5863;52.832;4.758;2023-04-19T14:48:54;13.70;97.60
11615;DHT22;5863;52.832;4.758;2023-04-19T14:51:22;13.60;97.50
11615;DHT22;5863;52.832;4.758;2023-04-19T14:53:49;13.50;96.70
11615;DHT22;5863;52.832;4.758;2023-04-19T14:56:16;13.50;97.40
11615;DHT22;5863;52.832;4.758;2023-04-19T14:58:43;13.40;97.80
11615;DHT22;5863;52.832;4.758;2023-04-19T15:01:11;13.40;98.30
11615;DHT22;5863;52.832;4.758;2023-04-19T15:03:37;13.30;98.20
11615;DHT22;5863;52.832;4.758;2023-04-19T15:06:05;13.30;98.30
11615;DHT22;5863;52.832;4.758;2023-04-19T15:08:32;13.30;98.50
11615;DHT22;5863;52.832;4.758;2023-04-19T15:10:59;13.30;98.60
11615;DHT22;5863;52.832;4.758;2023-04-19T15:13:25;13.40;97.90
11615;DHT22;5863;52.832;4.758;2023-04-19T15:15:55;13.40;98.10
11615;DHT22;5863;52.832;4.758;2023-04-19T15:18:22;13.40;97.70
11615;DHT22;5863;52.832;4.758;2023-04-19T15:20:49;13.20;97.80
11615;DHT22;5863;52.832;4.758;2023-04-19T15:23:15;13.20;98.80
11615;DHT22;5863;52.832;4.758;2023-04-19T15:25:42;13.20;99.10
11615;DHT22;5863;52.832;4.758;2023-04-19T15:28:09;13.20;98.90
11615;DHT22;5863;52.832;4.758;2023-04-19T15:30:36;13.20;98.90
11615;DHT22;5863;52.832;4.758;2023-04-19T15:33:04;13.20;99.40
11615;DHT22;5863;52.832;4.758;2023-04-19T15:35:30;13.20;98.70
11615;DHT22;5863;52.832;4.758;2023-04-19T15:37:58;13.20;98.30
11615;DHT22;5863;52.832;4.758;2023-04-19T15:40:25;13.10;98.50
11615;DHT22;5863;52.832;4.758;2023-04-19T15:42:52;13.10;99.00
11615;DHT22;5863;52.832;4.758;2023-04-19T15:45:20;13.10;98.50
11615;DHT22;5863;52.832;4.758;2023-04-19T15:47:47;12.90;98.70
11615;DHT22;5863;52.832;4.758;2023-04-19T15:50:15;12.90;99.40
11615;DHT22;5863;52.832;4.758;2023-04-19T15:52:41;12.90;99.10
11615;DHT22;5863;52.832;4.758;2023-04-19T15:55:08;12.90;98.90